Time;durP1;ratioP1;P1;durP2;ratioP2;P2;SDS_P1;SDS_P2;PMS_P1;PMS_P2;Temp;Humidity;BMP_temperature;BMP_pressure;BME280_temperature;BME280_humidity;BME280_pressure;Samples;Min_cycle;Max_cycle;Signal;HPM_P1;HPM_P2
2023/02/19 00:01:44;;;;;;;9.82;7.05;;;3.10;99.90;;;;;;5047119;28;20033;-61
2023/02/19 00:04:16;;;;;;;9.65;7.75;;;3.10;99.90;;;;;;5044413;28;20403;-61
2023/02/19 00:06:42;;;;;;;12.57;8.20;;;3.10;99.90;;;;;;5040683;28;20399;-60
2023/02/19 00:09:12;;;;;;;12.65;8.98;;;3.10;99.90;;;;;;5044026;28;20055;-61
2023/02/19 00:11:38;;;;;;;10.98;8.15;;;3.10;99.90;;;;;;5041441;28;20033;-61
2023/02/19 00:14:04;;;;;;;12.10;7.70;;;3.20;99.90;;;;;;5048335;28;20266;-61
2023/02/19 00:16:35;;;;;;;11.85;8.05;;;3.20;99.90;;;;;;5043753;28;20188;-61
2023/02/19 00:19:04;;;;;;;12.00;8.18;;;3.20;99.90;;;;;;5044143;28;20078;-62
2023/02/19 00:21:30;;;;;;;14.18;9.48;;;3.20;99.90;;;;;;5043161;28;20468;-61
2023/02/19 00:23:58;;;;;;;17.02;10.00;;;3.20;99.90;;;;;;5040646;28;20024;-61
2023/02/19 00:26:25;;;;;;;12.10;8.65;;;3.20;99.90;;;;;;5038118;28;20040;-61
2023/02/19 00:28:51;;;;;;;12.65;8.82;;;3.20;99.90;;;;;;5037690;28;20056;-63
2023/02/19 00:31:26;;;;;;;13.45;9.25;;;3.20;99.90;;;;;;5043964;28;20039;-62
2023/02/19 00:33:55;;;;;;;12.82;10.07;;;3.20;99.90;;;;;;5039055;28;20375;-61
2023/02/19 00:36:21;;;;;;;13.93;8.68;;;3.20;99.90;;;;;;5039687;28;20414;-62
2023/02/19 00:38:47;;;;;;;13.48;8.77;;;3.20;99.90;;;;;;5044115;28;20109;-62
2023/02/19 00:41:20;;;;;;;13.43;9.88;;;3.20;99.90;;;;;;5038631;28;20037;-62
2023/02/19 00:43:49;;;;;;;14.88;9.60;;;3.20;99.90;;;;;;5041277;28;20518;-60
2023/02/19 00:46:19;;;;;;;15.98;10.18;;;3.30;99.90;;;;;;5036061;28;20029;-59
2023/02/19 00:48:45;;;;;;;14.70;10.40;;;3.20;99.90;;;;;;5036219;28;20063;-60
2023/02/19 00:51:11;;;;;;;14.05;9.82;;;3.30;99.90;;;;;;5036697;28;20038;-61
2023/02/19 00:53:37;;;;;;;14.90;9.90;;;3.20;99.90;;;;;;5041436;28;20022;-61
2023/02/19 00:56:03;;;;;;;14.88;10.27;;;3.30;99.90;;;;;;5045537;28;20033;-59
2023/02/19 00:58:28;;;;;;;13.30;9.65;;;3.20;99.90;;;;;;5041976;28;20033;-59
2023/02/19 01:00:54;;;;;;;14.18;10.50;;;3.30;99.90;;;;;;5044532;28;20041;-59
2023/02/19 01:03:21;;;;;;;15.07;11.10;;;3.30;99.90;;;;;;5039667;28;20075;-61
2023/02/19 01:05:48;;;;;;;13.95;9.88;;;3.30;99.90;;;;;;5041004;28;20037;-62
2023/02/19 01:08:13;;;;;;;14.38;9.35;;;3.30;99.90;;;;;;5042606;28;20022;-61
2023/02/19 01:10:39;;;;;;;15.95;10.73;;;3.30;99.90;;;;;;5041202;28;20164;-59
2023/02/19 01:13:04;;;;;;;17.23;10.77;;;3.30;99.90;;;;;;5040047;28;20175;-62
2023/02/19 01:15:32;;;;;;;14.93;10.20;;;3.30;99.90;;;;;;5040638;28;20026;-62
2023/02/19 01:17:58;;;;;;;13.25;10.45;;;3.30;99.90;;;;;;5046506;28;20014;-62
2023/02/19 01:20:24;;;;;;;16.05;11.55;;;3.30;99.90;;;;;;5037535;28;20718;-62
2023/02/19 01:22:49;;;;;;;14.18;9.75;;;3.30;99.90;;;;;;5032261;28;20036;-62
2023/02/19 01:25:15;;;;;;;14.23;9.90;;;3.30;99.90;;;;;;5039735;28;20620;-62
2023/02/19 01:27:41;;;;;;;14.32;10.00;;;3.30;99.90;;;;;;5036812;28;20415;-62
2023/02/19 01:30:07;;;;;;;12.70;9.82;;;3.30;99.90;;;;;;5042574;28;20044;-62
2023/02/19 01:32:32;;;;;;;14.57;9.13;;;3.30;99.90;;;;;;5035180;28;20407;-62
2023/02/19 01:34:58;;;;;;;12.35;8.77;;;3.20;99.90;;;;;;5041254;28;20032;-61
2023/02/19 01:37:23;;;;;;;15.57;9.57;;;3.30;99.90;;;;;;5034542;28;20026;-62
2023/02/19 01:39:49;;;;;;;9.82;7.93;;;3.30;99.90;;;;;;5042425;28;20348;-60
2023/02/19 01:42:15;;;;;;;11.52;8.48;;;3.20;99.90;;;;;;5042745;28;20122;-61
2023/02/19 01:44:44;;;;;;;12.40;7.90;;;3.30;99.90;;;;;;5044396;28;20488;-62
2023/02/19 01:47:10;;;;;;;12.85;8.52;;;3.20;99.90;;;;;;5042174;28;20111;-62
2023/02/19 01:49:47;;;;;;;11.32;6.03;;;3.20;99.90;;;;;;5034731;28;20419;-61
2023/02/19 01:52:32;;;;;;;11.23;6.45;;;3.20;99.90;;;;;;5032757;28;20026;-61
2023/02/19 01:55:00;;;;;;;9.02;5.43;;;3.20;99.90;;;;;;5027866;28;20482;-62
2023/02/19 01:57:32;;;;;;;10.57;6.45;;;3.20;99.90;;;;;;5036624;28;20108;-61
2023/02/19 02:00:05;;;;;;;8.80;6.10;;;3.10;99.90;;;;;;5039631;28;20100;-62
2023/02/19 02:02:30;;;;;;;10.45;6.00;;;3.10;99.90;;;;;;5033252;28;20033;-61
2023/02/19 02:04:59;;;;;;;12.32;5.80;;;3.10;99.90;;;;;;5044675;28;20109;-61
2023/02/19 02:10:19;;;;;;;5.95;4.82;;;3.10;99.90;;;;;;5031837;28;20403;-61
2023/02/19 02:12:49;;;;;;;8.17;4.63;;;3.10;99.90;;;;;;5038779;28;20252;-61
2023/02/19 02:15:15;;;;;;;7.82;4.88;;;3.10;99.90;;;;;;5041851;28;20271;-60
2023/02/19 02:17:44;;;;;;;10.00;4.65;;;3.10;99.90;;;;;;5040731;28;20032;-61
2023/02/19 02:20:34;;;;;;;6.80;3.97;;;3.10;99.90;;;;;;5040393;28;20505;-62
2023/02/19 02:23:14;;;;;;;7.65;4.00;;;3.10;99.90;;;;;;5041916;28;20025;-61
2023/02/19 02:26:15;;;;;;;5.43;3.85;;;3.10;99.90;;;;;;5039779;28;20060;-60
2023/02/19 02:29:00;;;;;;;6.28;4.00;;;3.10;99.90;;;;;;5037780;28;20029;-62
2023/02/19 02:31:32;;;;;;;4.88;2.97;;;3.10;99.90;;;;;;5048939;28;20060;-61
2023/02/19 02:34:04;;;;;;;9.32;3.33;;;3.00;99.90;;;;;;5038526;28;20442;-60
2023/02/19 02:36:36;;;;;;;5.13;3.13;;;3.00;99.90;;;;;;5036095;28;20458;-60
2023/02/19 02:39:06;;;;;;;5.53;3.60;;;3.00;99.90;;;;;;5036284;28;20021;-61
2023/02/19 02:41:32;;;;;;;7.13;3.80;;;3.00;99.90;;;;;;5037612;28;20076;-61
2023/02/19 02:43:58;;;;;;;6.20;3.35;;;3.00;99.90;;;;;;5036778;28;20032;-60
2023/02/19 02:46:33;;;;;;;5.15;3.28;;;3.00;99.90;;;;;;5037149;28;20025;-60
2023/02/19 02:49:04;;;;;;;6.28;3.08;;;3.00;99.90;;;;;;5031746;28;20017;-61
2023/02/19 02:51:37;;;;;;;5.50;3.03;;;3.00;99.90;;;;;;5037094;28;20037;-61
2023/02/19 02:56:56;;;;;;;7.40;3.08;;;3.00;99.90;;;;;;5032461;28;20031;-60
2023/02/19 02:59:26;;;;;;;7.18;3.40;;;3.00;99.90;;;;;;5043968;28;20020;-61
2023/02/19 03:02:12;;;;;;;4.00;2.65;;;3.00;99.90;;;;;;5039509;28;20108;-58
2023/02/19 03:08:08;;;;;;;5.70;3.13;;;3.00;99.90;;;;;;5031722;28;20048;-60
2023/02/19 03:19:17;;;;;;;4.10;2.55;;;3.00;99.90;;;;;;5038218;28;20045;-61
2023/02/19 03:19:21;;;;;;;3.38;2.17;;;2.90;99.90;;;;;;5036782;28;20043;-61
2023/02/19 03:22:00;;;;;;;3.92;1.90;;;2.90;99.90;;;;;;5033951;28;20436;-61
2023/02/19 03:27:20;;;;;;;3.10;2.35;;;2.90;99.90;;;;;;5040178;28;20084;-60
2023/02/19 03:29:48;;;;;;;4.45;1.75;;;2.90;99.90;;;;;;5038336;28;20100;-61
2023/02/19 03:32:22;;;;;;;5.10;2.38;;;2.90;99.90;;;;;;5038991;28;20124;-61
2023/02/19 03:34:55;;;;;;;3.63;1.95;;;2.80;99.90;;;;;;5040385;28;20060;-61
2023/02/19 03:37:28;;;;;;;2.47;1.98;;;2.80;99.90;;;;;;5040985;28;20029;-61
2023/02/19 03:39:55;;;;;;;2.00;1.75;;;2.80;99.90;;;;;;5046309;28;20036;-59
2023/02/19 03:42:41;;;;;;;2.28;1.55;;;2.80;99.90;;;;;;5037694;28;20124;-61
2023/02/19 03:45:25;;;;;;;2.97;1.80;;;2.80;99.90;;;;;;5032772;28;20125;-62
2023/02/19 03:47:58;;;;;;;2.17;1.98;;;2.80;99.90;;;;;;5037651;28;20021;-61
2023/02/19 03:50:30;;;;;;;3.60;2.17;;;2.80;99.90;;;;;;5039612;28;20033;-60
2023/02/19 03:53:12;;;;;;;5.43;1.80;;;2.80;99.90;;;;;;5037799;28;20025;-61
2023/02/19 03:56:06;;;;;;;1.85;1.52;;;2.80;99.90;;;;;;5038577;28;20024;-61
2023/02/19 03:58:59;;;;;;;5.53;1.65;;;2.70;99.90;;;;;;5050090;28;20167;-60
2023/02/19 04:01:40;;;;;;;1.98;1.42;;;2.70;99.90;;;;;;5039872;28;20025;-61
2023/02/19 04:04:20;;;;;;;2.92;1.67;;;2.70;99.90;;;;;;5039397;28;20522;-59
2023/02/19 04:06:52;;;;;;;3.22;1.85;;;2.70;99.90;;;;;;5037509;28;20018;-61
2023/02/19 04:09:20;;;;;;;5.28;1.85;;;2.70;99.90;;;;;;5036691;28;20435;-61
2023/02/19 04:11:48;;;;;;;4.80;1.80;;;2.70;99.90;;;;;;5041031;28;20025;-62
2023/02/19 04:14:20;;;;;;;1.67;1.58;;;2.60;99.90;;;;;;5041942;28;20053;-60
2023/02/19 04:16:52;;;;;;;5.32;1.63;;;2.60;99.90;;;;;;5037746;28;20033;-61
2023/02/19 04:19:21;;;;;;;3.55;1.70;;;2.60;99.90;;;;;;5047820;28;20116;-61
2023/02/19 04:21:49;;;;;;;3.42;1.60;;;2.60;99.90;;;;;;5041292;28;20021;-59
2023/02/19 04:24:26;;;;;;;3.00;1.60;;;2.50;99.90;;;;;;5036592;28;20045;-59
2023/02/19 04:26:53;;;;;;;4.10;2.15;;;2.50;99.90;;;;;;5034822;28;20026;-61
2023/02/19 04:29:19;;;;;;;4.38;2.00;;;2.50;99.90;;;;;;5036505;28;20072;-61
2023/02/19 04:31:45;;;;;;;3.97;2.20;;;2.40;99.90;;;;;;5047974;28;20065;-58
2023/02/19 04:34:10;;;;;;;3.50;1.92;;;2.40;99.90;;;;;;5038747;28;20037;-61
2023/02/19 04:36:36;;;;;;;4.95;2.33;;;2.40;99.90;;;;;;5047781;28;20029;-61
2023/02/19 04:39:01;;;;;;;3.13;2.00;;;2.40;99.90;;;;;;5038841;28;20033;-60
2023/02/19 04:41:27;;;;;;;4.25;2.03;;;2.30;99.90;;;;;;5037158;28;20045;-60
2023/02/19 04:43:53;;;;;;;3.03;2.28;;;2.30;99.90;;;;;;5041561;28;20068;-61
2023/02/19 04:46:18;;;;;;;2.92;2.35;;;2.20;99.90;;;;;;5039009;28;20021;-61
2023/02/19 04:48:44;;;;;;;4.28;2.47;;;2.20;99.90;;;;;;5046507;28;20631;-62
2023/02/19 04:51:10;;;;;;;2.92;2.42;;;2.20;99.90;;;;;;5042112;28;20086;-59
2023/02/19 04:53:36;;;;;;;3.22;2.63;;;2.20;99.90;;;;;;5041564;28;20040;-59
2023/02/19 04:56:11;;;;;;;6.38;2.53;;;2.10;99.90;;;;;;5043589;28;20112;-61
2023/02/19 04:58:38;;;;;;;5.47;2.60;;;2.10;99.90;;;;;;5040127;28;20034;-61
2023/02/19 05:01:04;;;;;;;5.07;2.47;;;2.10;99.90;;;;;;5042276;28;20033;-61
2023/02/19 05:03:30;;;;;;;3.97;2.95;;;2.10;99.90;;;;;;5043098;28;20029;-59
2023/02/19 05:05:56;;;;;;;6.53;2.47;;;2.10;99.90;;;;;;5043298;28;20464;-62
2023/02/19 05:08:22;;;;;;;3.50;2.13;;;2.10;99.90;;;;;;5040564;28;20099;-61
2023/02/19 05:10:47;;;;;;;6.38;3.00;;;2.10;99.90;;;;;;5042195;28;20033;-61
2023/02/19 05:13:13;;;;;;;4.68;2.30;;;2.00;99.90;;;;;;5043094;28;20037;-61
2023/02/19 05:15:38;;;;;;;4.72;2.38;;;2.00;99.90;;;;;;5040427;28;20065;-58
2023/02/19 05:18:04;;;;;;;2.50;2.25;;;1.90;99.90;;;;;;5039318;28;20033;-61
2023/02/19 05:20:29;;;;;;;2.80;1.80;;;1.90;99.90;;;;;;5038484;28;20119;-61
2023/02/19 05:22:55;;;;;;;2.97;2.08;;;1.90;99.90;;;;;;5044201;28;20025;-62
2023/02/19 05:25:21;;;;;;;2.03;1.80;;;1.80;99.90;;;;;;5040001;28;20033;-61
2023/02/19 05:27:46;;;;;;;3.00;1.80;;;1.80;99.90;;;;;;5042515;28;20503;-61
2023/02/19 05:30:12;;;;;;;3.53;2.03;;;1.80;99.90;;;;;;5040483;28;20041;-62
2023/02/19 05:32:38;;;;;;;4.70;2.08;;;1.80;99.90;;;;;;5041411;28;20079;-61
2023/02/19 05:35:04;;;;;;;3.17;1.90;;;1.70;99.90;;;;;;5034596;28;20033;-60
2023/02/19 05:37:29;;;;;;;2.45;1.85;;;1.70;99.90;;;;;;5034864;28;20696;-60
2023/02/19 05:39:55;;;;;;;3.40;1.60;;;1.70;99.90;;;;;;5042291;28;20104;-61
2023/02/19 05:42:20;;;;;;;6.88;1.77;;;1.70;99.90;;;;;;5041424;28;20041;-61
2023/02/19 05:44:46;;;;;;;1.75;1.48;;;1.60;99.90;;;;;;5037085;28;20593;-61
2023/02/19 05:47:11;;;;;;;4.93;1.95;;;1.60;99.90;;;;;;5035842;28;20068;-59
2023/02/19 05:49:37;;;;;;;3.72;1.83;;;1.60;99.90;;;;;;5043295;28;20041;-61
2023/02/19 05:52:03;;;;;;;3.08;1.50;;;1.60;99.90;;;;;;5042239;28;20036;-59
2023/02/19 05:54:29;;;;;;;3.05;1.48;;;1.60;99.90;;;;;;5041761;28;20166;-61
2023/02/19 05:56:55;;;;;;;2.25;1.50;;;1.50;99.90;;;;;;5038396;28;20028;-62
2023/02/19 05:59:24;;;;;;;5.65;1.85;;;1.50;99.90;;;;;;5040944;28;20398;-61
2023/02/19 06:01:51;;;;;;;7.32;2.00;;;1.50;99.90;;;;;;5038794;28;20071;-60
2023/02/19 06:04:18;;;;;;;5.93;2.38;;;1.50;99.90;;;;;;5037651;28;20033;-61
2023/02/19 06:06:45;;;;;;;6.50;2.10;;;1.40;99.90;;;;;;5035573;28;20057;-61
2023/02/19 06:09:11;;;;;;;3.75;2.28;;;1.40;99.90;;;;;;5035299;28;20039;-60
2023/02/19 06:11:37;;;;;;;5.60;2.13;;;1.50;99.90;;;;;;5040792;28;20037;-59
2023/02/19 06:14:03;;;;;;;4.95;2.28;;;1.50;99.90;;;;;;5039534;28;20422;-58
2023/02/19 06:16:31;;;;;;;6.57;2.05;;;1.40;99.90;;;;;;5054220;28;20025;-58
2023/02/19 06:18:56;;;;;;;7.03;2.00;;;1.40;99.90;;;;;;5042169;28;20028;-57
2023/02/19 06:21:22;;;;;;;10.75;2.92;;;1.40;99.90;;;;;;5034200;28;20034;-58
2023/02/19 06:23:47;;;;;;;4.22;2.08;;;1.50;99.90;;;;;;5040865;28;20066;-60
2023/02/19 06:26:16;;;;;;;8.90;2.63;;;1.50;99.90;;;;;;5036907;28;20479;-58
2023/02/19 06:28:42;;;;;;;6.68;2.47;;;1.50;99.90;;;;;;5040234;28;20052;-60
2023/02/19 06:31:09;;;;;;;6.43;2.10;;;1.50;99.90;;;;;;5036113;28;20163;-61
2023/02/19 06:33:36;;;;;;;6.57;2.58;;;1.50;99.90;;;;;;5040538;28;20064;-58
2023/02/19 06:36:03;;;;;;;10.52;2.22;;;1.50;99.90;;;;;;5038593;28;20037;-59
2023/02/19 06:38:30;;;;;;;5.05;1.90;;;1.50;99.90;;;;;;5041531;28;20403;-60
2023/02/19 06:41:00;;;;;;;2.60;1.75;;;1.50;99.90;;;;;;5036712;28;20103;-59
2023/02/19 06:43:25;;;;;;;3.85;2.28;;;1.50;99.90;;;;;;5042747;28;20587;-61
2023/02/19 06:45:51;;;;;;;6.43;2.10;;;1.50;99.90;;;;;;5032325;28;20108;-58
2023/02/19 06:48:16;;;;;;;6.30;2.83;;;1.50;99.90;;;;;;5038291;28;20025;-59
2023/02/19 06:50:42;;;;;;;13.98;3.22;;;1.50;99.90;;;;;;5035064;28;20044;-62
2023/02/19 06:53:10;;;;;;;3.70;1.73;;;1.50;99.90;;;;;;5039397;28;20041;-61
2023/02/19 06:55:35;;;;;;;5.00;2.40;;;1.60;99.90;;;;;;5041766;28;20078;-58
2023/02/19 06:58:01;;;;;;;4.50;2.22;;;1.50;99.90;;;;;;5032639;28;20112;-58
2023/02/19 07:00:26;;;;;;;6.10;1.70;;;1.50;99.90;;;;;;5038139;28;20387;-58
2023/02/19 07:02:55;;;;;;;4.80;1.83;;;1.50;99.90;;;;;;5040727;28;20032;-59
2023/02/19 07:05:22;;;;;;;3.47;1.88;;;1.50;99.90;;;;;;5029896;28;20044;-61
2023/02/19 07:07:48;;;;;;;2.60;1.67;;;1.50;99.90;;;;;;5028644;28;20037;-61
2023/02/19 07:10:14;;;;;;;6.10;2.08;;;1.50;99.90;;;;;;5034592;28;20060;-61
2023/02/19 07:12:40;;;;;;;5.57;2.20;;;1.50;99.90;;;;;;5032266;28;20118;-60
2023/02/19 07:15:06;;;;;;;8.18;1.95;;;1.50;99.90;;;;;;5036815;28;20069;-58
2023/02/19 07:17:33;;;;;;;6.68;1.67;;;1.50;99.90;;;;;;5031961;28;20495;-59
2023/02/19 07:19:58;;;;;;;7.43;2.22;;;1.60;99.90;;;;;;5029372;28;20025;-59
2023/02/19 07:22:24;;;;;;;4.55;1.60;;;1.60;99.90;;;;;;5033583;28;20024;-58
2023/02/19 07:24:49;;;;;;;7.10;2.58;;;1.60;99.90;;;;;;5021798;28;20535;-59
2023/02/19 07:27:15;;;;;;;4.38;1.58;;;1.60;99.90;;;;;;5034480;28;20018;-61
2023/02/19 07:29:40;;;;;;;5.80;1.98;;;1.60;99.90;;;;;;5030319;28;20472;-59
2023/02/19 07:32:06;;;;;;;5.78;1.45;;;1.70;99.90;;;;;;5029723;28;20025;-58
2023/02/19 07:34:32;;;;;;;5.05;2.33;;;1.70;99.90;;;;;;5029018;28;20063;-60
2023/02/19 07:36:57;;;;;;;4.93;1.70;;;1.80;99.90;;;;;;5031802;28;20515;-59
2023/02/19 07:39:23;;;;;;;2.15;1.35;;;1.80;99.90;;;;;;5030114;28;20492;-61
2023/02/19 07:41:48;;;;;;;3.90;1.42;;;1.80;99.90;;;;;;5037247;28;20034;-60
2023/02/19 07:44:15;;;;;;;5.07;2.58;;;1.90;99.90;;;;;;5030956;28;20109;-61
2023/02/19 07:46:41;;;;;;;8.60;2.85;;;1.90;99.90;;;;;;5028621;28;20033;-59
2023/02/19 07:49:07;;;;;;;6.90;2.30;;;2.00;99.90;;;;;;5030068;28;20125;-61
2023/02/19 07:51:32;;;;;;;11.40;2.00;;;2.00;99.90;;;;;;5029773;28;20112;-60
2023/02/19 07:53:58;;;;;;;5.50;1.75;;;2.00;99.90;;;;;;5040480;28;20033;-61
2023/02/19 07:56:24;;;;;;;5.82;1.63;;;2.00;99.90;;;;;;5035753;28;20024;-61
2023/02/19 07:58:49;;;;;;;4.38;1.73;;;2.00;99.90;;;;;;5041760;28;20032;-59
2023/02/19 08:04:05;;;;;;;3.20;1.70;;;1.90;99.90;;;;;;5044371;28;20521;-61
2023/02/19 08:06:30;;;;;;;8.57;2.03;;;1.90;99.90;;;;;;5042006;28;20029;-62
2023/02/19 08:09:00;;;;;;;2.70;1.65;;;1.90;99.90;;;;;;5040824;28;20040;-60
2023/02/19 08:14:10;;;;;;;3.97;1.73;;;2.00;99.90;;;;;;5037157;28;20063;-59
2023/02/19 08:16:35;;;;;;;4.53;1.92;;;2.00;99.90;;;;;;5042651;28;20479;-59
2023/02/19 08:19:01;;;;;;;7.10;1.90;;;2.00;99.90;;;;;;5045549;28;20052;-61
2023/02/19 08:21:26;;;;;;;4.05;1.33;;;2.10;99.90;;;;;;5043037;28;20041;-60
2023/02/19 08:23:52;;;;;;;5.28;1.60;;;2.10;99.90;;;;;;5040809;28;20056;-61
2023/02/19 08:26:17;;;;;;;7.30;2.15;;;2.20;99.90;;;;;;5046196;28;20395;-62
2023/02/19 08:28:43;;;;;;;6.28;2.05;;;2.20;99.90;;;;;;5041353;28;20029;-62
2023/02/19 08:31:10;;;;;;;5.85;1.55;;;2.30;99.90;;;;;;5040405;28;20163;-61
2023/02/19 08:33:36;;;;;;;9.15;1.95;;;2.30;99.90;;;;;;5045146;28;20103;-61
2023/02/19 08:36:04;;;;;;;7.97;2.42;;;2.30;99.90;;;;;;5044058;28;20036;-62
2023/02/19 08:38:31;;;;;;;9.40;1.90;;;2.40;99.90;;;;;;5041426;28;20021;-61
2023/02/19 08:40:56;;;;;;;2.70;1.50;;;2.50;99.90;;;;;;5037809;28;20021;-62
2023/02/19 08:43:22;;;;;;;2.60;1.38;;;2.70;99.90;;;;;;5044111;28;20021;-61
2023/02/19 08:45:51;;;;;;;3.13;1.42;;;2.80;99.90;;;;;;5041319;28;20040;-62
2023/02/19 08:48:16;;;;;;;3.60;1.50;;;2.90;99.90;;;;;;5047069;28;20028;-59
2023/02/19 08:50:42;;;;;;;5.28;1.50;;;3.00;99.90;;;;;;5040932;28;20040;-62
2023/02/19 08:53:08;;;;;;;3.88;1.48;;;3.10;99.90;;;;;;5046195;28;20062;-60
2023/02/19 08:55:35;;;;;;;9.65;1.80;;;3.30;99.90;;;;;;5042177;28;20028;-62
2023/02/19 08:58:00;;;;;;;4.32;1.20;;;3.40;99.90;;;;;;5039627;28;20037;-62
2023/02/19 09:00:26;;;;;;;5.20;1.33;;;3.50;99.90;;;;;;5039787;28;20028;-62
2023/02/19 09:02:51;;;;;;;5.55;1.75;;;3.60;99.90;;;;;;5047791;28;20344;-60
2023/02/19 09:05:17;;;;;;;6.10;1.85;;;3.70;99.90;;;;;;5038784;28;20041;-62
2023/02/19 09:07:43;;;;;;;6.57;1.92;;;3.80;99.90;;;;;;5041114;28;20037;-61
2023/02/19 09:10:12;;;;;;;3.55;1.23;;;3.90;99.90;;;;;;5043491;28;20479;-62
2023/02/19 09:12:39;;;;;;;3.72;1.02;;;3.90;99.90;;;;;;5035549;28;20144;-61
2023/02/19 09:15:05;;;;;;;7.53;1.33;;;4.00;99.90;;;;;;5043313;28;20022;-62
2023/02/19 09:17:30;;;;;;;15.30;1.77;;;4.10;99.90;;;;;;5035597;28;20085;-62
2023/02/19 09:19:56;;;;;;;4.13;1.50;;;4.20;99.90;;;;;;5039717;28;20030;-62
2023/02/19 09:22:21;;;;;;;4.38;1.90;;;4.30;99.90;;;;;;5035728;28;20029;-62
2023/02/19 09:24:47;;;;;;;6.10;1.35;;;4.40;99.90;;;;;;5042822;28;20032;-61
2023/02/19 09:27:15;;;;;;;3.97;1.45;;;4.40;99.90;;;;;;5034419;28;20036;-59
2023/02/19 09:29:41;;;;;;;5.65;1.67;;;4.50;99.90;;;;;;5038256;28;20099;-62
2023/02/19 09:32:06;;;;;;;7.47;1.83;;;4.60;99.90;;;;;;5044343;28;20508;-62
2023/02/19 09:34:32;;;;;;;2.60;1.13;;;4.70;99.90;;;;;;5040778;28;20103;-61
2023/02/19 09:36:57;;;;;;;6.85;1.77;;;4.70;99.90;;;;;;5046914;28;20021;-61
2023/02/19 09:39:23;;;;;;;5.72;1.75;;;4.80;99.90;;;;;;5039271;28;20028;-62
2023/02/19 09:41:56;;;;;;;4.50;1.48;;;4.90;99.90;;;;;;5042524;28;20036;-61
2023/02/19 09:44:31;;;;;;;6.38;1.60;;;5.00;99.90;;;;;;5041515;28;20024;-62
2023/02/19 09:46:59;;;;;;;8.38;1.58;;;5.10;99.90;;;;;;5026220;28;20427;-61
2023/02/19 09:49:32;;;;;;;9.43;1.55;;;5.10;99.90;;;;;;5037476;28;20503;-62
2023/02/19 09:52:19;;;;;;;4.28;1.17;;;5.20;99.90;;;;;;5031761;28;20430;-60
2023/02/19 09:54:45;;;;;;;;;;;5.20;99.90;;;;;;5043100;28;20036;-61
2023/02/19 09:57:20;;;;;;;5.68;1.23;;;5.30;99.90;;;;;;5040409;28;19928;-60
2023/02/19 09:59:49;;;;;;;2.65;0.95;;;5.40;99.90;;;;;;5039360;28;20037;-60
2023/02/19 10:02:23;;;;;;;5.07;0.70;;;5.40;99.90;;;;;;5045643;28;20475;-61
2023/02/19 10:04:50;;;;;;;7.72;1.30;;;5.50;99.90;;;;;;5038724;28;20087;-62
2023/02/19 10:07:18;;;;;;;6.70;1.08;;;5.60;99.90;;;;;;5039074;28;20025;-60
2023/02/19 10:09:49;;;;;;;4.38;1.13;;;5.60;99.90;;;;;;5044685;28;20503;-61
2023/02/19 10:12:22;;;;;;;4.35;0.90;;;5.60;99.90;;;;;;5038208;28;20072;-59
2023/02/19 10:14:50;;;;;;;5.75;1.15;;;5.60;99.90;;;;;;5045347;28;20021;-59
2023/02/19 10:17:24;;;;;;;5.07;1.00;;;5.70;99.90;;;;;;5032429;28;20022;-61
2023/02/19 10:19:51;;;;;;;5.05;0.85;;;5.80;99.90;;;;;;5046154;28;20112;-60
2023/02/19 10:22:17;;;;;;;4.97;0.98;;;5.70;99.90;;;;;;5035255;28;20507;-61
2023/02/19 10:24:47;;;;;;;3.75;1.00;;;5.80;99.90;;;;;;5036353;28;20021;-60
2023/02/19 10:27:14;;;;;;;4.72;1.00;;;5.80;99.90;;;;;;5039863;28;20487;-61
2023/02/19 10:29:43;;;;;;;3.17;1.40;;;5.90;99.90;;;;;;5032435;28;20100;-60
2023/02/19 10:32:17;;;;;;;1.55;0.55;;;6.00;99.90;;;;;;5044968;28;20120;-61
2023/02/19 10:34:43;;;;;;;1.63;0.90;;;6.00;99.90;;;;;;5040526;28;20021;-60
2023/02/19 10:37:15;;;;;;;5.72;1.05;;;6.10;99.90;;;;;;5046389;28;20151;-60
2023/02/19 10:39:46;;;;;;;6.88;1.23;;;6.10;99.90;;;;;;5035772;28;20024;-60
2023/02/19 10:42:22;;;;;;;3.58;0.85;;;6.20;99.90;;;;;;5035699;28;20403;-61
2023/02/19 10:45:00;;;;;;;2.60;0.65;;;6.20;99.90;;;;;;5033969;28;20086;-61
2023/02/19 10:47:28;;;;;;;2.38;0.63;;;6.10;99.90;;;;;;5038239;28;20055;-60
2023/02/19 10:49:57;;;;;;;2.67;1.02;;;6.10;99.90;;;;;;5035499;28;20021;-60
2023/02/19 10:52:34;;;;;;;7.75;1.00;;;6.20;99.90;;;;;;5025687;28;20021;-60
2023/02/19 10:55:34;;;;;;;4.75;0.47;;;6.30;99.90;;;;;;5024958;28;20132;-61
2023/02/19 10:58:26;;;;;;;4.57;0.65;;;6.30;99.90;;;;;;5026216;28;20476;-60
2023/02/19 11:01:24;;;;;;;4.95;0.85;;;6.30;99.90;;;;;;5027152;28;20100;-61
2023/02/19 11:03:52;;;;;;;4.88;1.10;;;6.30;99.90;;;;;;5040975;28;20617;-59
2023/02/19 11:06:24;;;;;;;4.28;0.85;;;6.30;99.90;;;;;;5039764;28;20029;-60
2023/02/19 11:08:57;;;;;;;3.35;0.93;;;6.40;99.90;;;;;;5036308;28;20430;-61
2023/02/19 11:11:27;;;;;;;5.35;0.82;;;6.50;99.90;;;;;;5043302;28;20506;-60
2023/02/19 11:13:55;;;;;;;2.63;0.82;;;6.50;99.90;;;;;;5035973;28;20034;-61
2023/02/19 11:16:39;;;;;;;2.67;0.88;;;6.50;99.90;;;;;;5042073;28;20021;-58
2023/02/19 11:19:04;;;;;;;3.88;1.00;;;6.50;99.90;;;;;;5042487;28;20563;-60
2023/02/19 11:21:33;;;;;;;2.70;0.93;;;6.50;99.90;;;;;;5038025;28;20108;-60
2023/02/19 11:24:02;;;;;;;2.53;0.60;;;6.50;99.90;;;;;;5037585;28;20026;-60
2023/02/19 11:26:33;;;;;;;2.47;1.13;;;6.50;99.90;;;;;;5041273;28;20029;-62
2023/02/19 11:29:10;;;;;;;1.88;0.60;;;6.50;99.90;;;;;;5039728;28;20025;-57
2023/02/19 11:31:36;;;;;;;4.15;0.98;;;6.60;99.90;;;;;;5045145;28;20059;-59
2023/02/19 11:34:20;;;;;;;3.88;0.73;;;6.60;99.90;;;;;;5040427;28;20065;-59
2023/02/19 11:36:50;;;;;;;2.75;1.13;;;6.60;99.90;;;;;;5046959;28;20103;-58
2023/02/19 11:39:15;;;;;;;2.38;0.82;;;6.70;99.90;;;;;;5039133;28;20017;-59
2023/02/19 11:42:07;;;;;;;3.83;0.75;;;6.70;99.90;;;;;;5039744;28;20052;-59
2023/02/19 11:44:35;;;;;;;3.75;0.70;;;6.60;99.90;;;;;;5038774;28;20025;-58
2023/02/19 11:47:41;;;;;;;3.05;0.73;;;6.60;99.90;;;;;;5039496;28;20037;-58
2023/02/19 11:50:32;;;;;;;2.78;0.77;;;6.60;99.90;;;;;;5033372;28;20033;-58
2023/02/19 11:53:36;;;;;;;1.70;0.68;;;6.60;99.90;;;;;;5040380;28;20032;-60
2023/02/19 11:56:13;;;;;;;3.03;0.80;;;6.70;99.90;;;;;;5026599;28;20025;-58
2023/02/19 11:58:50;;;;;;;2.83;0.85;;;6.80;99.90;;;;;;5039059;28;20021;-59
2023/02/19 12:01:49;;;;;;;4.25;0.95;;;6.70;99.90;;;;;;5040747;28;20123;-59
2023/02/19 12:04:42;;;;;;;1.63;0.43;;;6.70;99.90;;;;;;5040486;28;20033;-58
2023/02/19 12:07:32;;;;;;;3.42;0.65;;;6.80;99.90;;;;;;5036755;28;20397;-62
2023/02/19 12:10:29;;;;;;;3.47;0.50;;;6.80;99.90;;;;;;5032265;28;20022;-62
2023/02/19 12:13:21;;;;;;;2.65;0.93;;;6.80;99.90;;;;;;5026265;28;20025;-60
2023/02/19 12:16:18;;;;;;;2.38;0.80;;;6.80;99.90;;;;;;5038249;28;20021;-57
2023/02/19 12:18:51;;;;;;;1.45;0.60;;;6.80;99.90;;;;;;5032200;28;20037;-58
2023/02/19 12:21:36;;;;;;;3.58;0.63;;;6.80;99.90;;;;;;5039726;28;20021;-62
2023/02/19 12:24:21;;;;;;;0.98;0.70;;;6.90;99.90;;;;;;5026828;28;20025;-61
2023/02/19 12:26:54;;;;;;;3.45;1.20;;;6.90;99.90;;;;;;5043532;28;20448;-57
2023/02/19 12:29:28;;;;;;;2.33;0.90;;;7.00;99.90;;;;;;5025654;28;20395;-60
2023/02/19 12:32:13;;;;;;;4.43;1.13;;;7.00;99.90;;;;;;5024008;28;20020;-61
2023/02/19 12:34:46;;;;;;;2.58;0.77;;;7.00;99.90;;;;;;5031316;28;20029;-60
2023/02/19 12:37:14;;;;;;;2.45;0.95;;;6.90;99.90;;;;;;5031476;28;20033;-60
2023/02/19 12:40:20;;;;;;;0.65;0.38;;;6.90;99.90;;;;;;5041506;28;20026;-60
2023/02/19 12:43:17;;;;;;;1.25;0.70;;;6.90;99.90;;;;;;5042147;28;20063;-61
2023/02/19 12:45:52;;;;;;;3.55;1.23;;;6.90;99.90;;;;;;5041293;28;20032;-61
2023/02/19 12:48:38;;;;;;;2.08;0.85;;;6.90;99.90;;;;;;5046828;28;20447;-60
2023/02/19 12:51:04;;;;;;;2.20;0.70;;;6.90;99.90;;;;;;5037222;28;20071;-61
2023/02/19 12:53:53;;;;;;;3.33;0.77;;;7.00;99.90;;;;;;5048437;28;20025;-61
2023/02/19 12:56:27;;;;;;;1.75;1.00;;;7.00;99.90;;;;;;5040200;28;20057;-59
2023/02/19 12:58:57;;;;;;;3.60;1.02;;;7.00;99.90;;;;;;5028527;28;20098;-61
2023/02/19 13:01:28;;;;;;;4.95;0.93;;;7.10;99.90;;;;;;5043915;28;20017;-61
2023/02/19 13:04:18;;;;;;;5.00;0.90;;;7.10;99.90;;;;;;5033767;28;20494;-61
2023/02/19 13:07:06;;;;;;;5.03;0.93;;;7.00;99.90;;;;;;5039342;28;20064;-61
2023/02/19 13:09:45;;;;;;;5.00;0.70;;;7.00;99.90;;;;;;5046243;28;20028;-61
2023/02/19 13:12:19;;;;;;;5.60;1.70;;;7.00;99.90;;;;;;5040216;28;20539;-61
2023/02/19 13:14:56;;;;;;;2.70;0.73;;;7.00;99.90;;;;;;5047113;28;20452;-61
2023/02/19 13:17:37;;;;;;;2.63;0.47;;;7.00;99.90;;;;;;5039880;28;20483;-61
2023/02/19 13:20:21;;;;;;;0.95;0.52;;;7.10;99.90;;;;;;5033519;28;20029;-62
2023/02/19 13:26:38;;;;;;;6.82;1.23;;;7.10;99.90;;;;;;5037280;28;20032;-61
2023/02/19 13:29:19;;;;;;;3.80;0.63;;;7.10;99.90;;;;;;5037041;28;20440;-61
2023/02/19 13:32:21;;;;;;;2.42;0.95;;;7.10;99.90;;;;;;5040739;28;20033;-61
2023/02/19 13:34:55;;;;;;;3.88;1.27;;;7.10;99.90;;;;;;5031568;28;20544;-61
2023/02/19 13:37:22;;;;;;;1.83;0.70;;;7.10;99.90;;;;;;5031255;28;20018;-61
2023/02/19 13:39:51;;;;;;;4.80;0.70;;;7.10;99.90;;;;;;5032161;28;20021;-59
2023/02/19 13:42:30;;;;;;;2.28;0.68;;;7.10;99.90;;;;;;5046934;28;20058;-60